Portada
METAR-TAF:

METAR-TAF

Aeroports :

Islamabad, Pakistan

latitud: 33-32-57N, longitud: 072-49-32E, altitud: 537 m

Observació

L'informe es va fer fa 36 minuts, a les 18:55 UTC
Vent 7 kt del Nord-Est
Temperatura 29°C
Humitat 74%
Pressió 1001 hPa
Visibilitat: 6000 m

METAR: OPIS 231855Z 05007KT 6000 NSC 29/24 Q1001 NOSIG

Hora: 00:31 (19:31 UTC)

Pronòstic

L'informe es va fer fa 4 hores i 21 minuts, a les 15:10 UTC
Pronòstic vàlid del 23 a les 18 UTC al 24 a les 24 UTC
Vent 10 kt del Est/Sud-Est
Visibilitat: 6000 m
Probabilitat 30% :
Temporalment
l' 23 a les 20 UTC al 24 a les 02 UTC
Vent 20 kt del Nord-Est amb ràfegues de 40 kt
Visibilitat: 3000 m
Escasses núvols a una alçada de 3000 ft, Cumulonimbus.
Núvols disperses a una alçada de 4000 ft
Cel ennuvolat a una alçada de 10000 ft
tempesta, pluja

TAF: OPIS 231510Z 2318/2424 12010KT 6000 NSC PROB30 TEMPO 2320/2402 05020G40KT 3000 TSRA FEW030CB SCT040 BKN100

Observacions i pronòstics meteorològics de més de 4000 aeroports (METAR i TAF).

Les estacions disponibles són els punts grocs i vermells al mapa.

Posi el ratolí al punt desitjat per veure el nom de l'estació.

Feu clic per veure les observacions i els pronòstics meteorològics.

Per canviar el mapa: feu clic els botons verds amb una creu de color negre per apropar; al botó verd amb un guió per allunyar la imatge; o en les fletxes verdes per a mapes adjacents.


METAR-TAF: